Suburban Heights, Illinois
Current Conditions -  °F | °C
As of 8:35 PM on Saturday 20 Dec 2014 (Local Time) from KENL Reporting Station
Overcast Overcast  
Wind Chill: 37°   Ceiling: 3000
Heat Index: 37°   Visibility: 10mi
Dew Point: 29°   Wind: 3mph
Humidity: 73%   Direction: 120°ESE
Pressure: 30.28"   Gusts: NA
Location:  38.5134°N, 89.1673°W
Report Text: KENL 210235Z AUTO 12003KT 10SM OVC030 03/M02 A3028 RMK AO2 T00251019
Loading
Personal Weather Stations






























Interactive Weather Map New forecast layout! Learn more

10-Day Weather Forecast

Advertisements
Track Severe Weather on mobile